createdAt,value
2019-03-24T00:00:38.240Z,3.70
2019-03-24T00:03:07.779Z,3.75
2019-03-24T00:05:37.594Z,3.75
2019-03-24T00:08:07.228Z,3.60
2019-03-24T00:10:37.175Z,4.22
2019-03-24T00:13:06.898Z,4.17
2019-03-24T00:15:36.855Z,3.60
2019-03-24T00:18:06.732Z,3.87
2019-03-24T00:20:36.294Z,3.85
2019-03-24T00:23:05.851Z,4.15
2019-03-24T00:25:35.379Z,4.65
2019-03-24T00:28:05.143Z,4.10
2019-03-24T00:30:34.753Z,3.92
2019-03-24T00:33:04.654Z,4.10
2019-03-24T00:35:34.226Z,4.08
2019-03-24T00:38:04.229Z,4.30
2019-03-24T00:40:34.096Z,4.20
2019-03-24T00:43:04.231Z,4.70
2019-03-24T00:45:37.074Z,3.95
2019-03-24T00:48:05.603Z,4.55
2019-03-24T00:50:35.362Z,4.40
2019-03-24T00:53:04.929Z,3.95
2019-03-24T00:55:35.377Z,4.55
2019-03-24T00:58:05.382Z,4.95
2019-03-24T01:00:49.781Z,4.70
2019-03-24T01:03:19.374Z,4.45
2019-03-24T01:05:50.614Z,4.50
2019-03-24T01:08:20.060Z,4.42
2019-03-24T01:10:49.614Z,4.65
2019-03-24T01:13:19.409Z,4.70
2019-03-24T01:15:48.926Z,4.33
2019-03-24T01:18:18.425Z,4.92
2019-03-24T01:20:48.610Z,4.20
2019-03-24T01:23:18.608Z,3.92
2019-03-24T01:25:48.173Z,4.00
2019-03-24T01:28:17.675Z,4.55
2019-03-24T01:30:47.279Z,4.40
2019-03-24T01:33:17.010Z,4.62
2019-03-24T01:35:46.943Z,5.42
2019-03-24T01:38:16.613Z,5.20
2019-03-24T01:40:46.293Z,5.03
2019-03-24T01:43:15.816Z,5.35
2019-03-24T01:45:45.782Z,5.08
2019-03-24T01:48:15.402Z,4.33
2019-03-24T01:50:44.979Z,5.12
2019-03-24T01:53:14.341Z,5.25
2019-03-24T01:55:44.358Z,5.42
2019-03-24T01:58:13.810Z,5.58
2019-03-24T02:00:43.310Z,5.15
2019-03-24T02:03:12.755Z,4.62
2019-03-24T02:05:42.415Z,5.95
2019-03-24T02:08:11.915Z,5.83
2019-03-24T02:10:41.355Z,5.30
2019-03-24T02:13:11.101Z,5.87
2019-03-24T02:15:40.919Z,5.05
2019-03-24T02:18:10.762Z,5.25
2019-03-24T02:20:40.410Z,4.85
2019-03-24T02:23:09.844Z,4.87
2019-03-24T02:25:39.275Z,5.17
2019-03-24T02:28:08.958Z,5.00
2019-03-24T02:30:38.490Z,4.40
2019-03-24T02:33:08.101Z,4.80
2019-03-24T02:35:37.650Z,4.85
2019-03-24T02:38:07.184Z,6.45
2019-03-24T02:40:36.644Z,5.58
2019-03-24T02:43:06.152Z,5.05
2019-03-24T02:45:35.689Z,5.50
2019-03-24T02:48:05.530Z,6.15
2019-03-24T02:50:35.260Z,5.75
2019-03-24T02:53:04.999Z,4.42
2019-03-24T02:55:34.925Z,6.08
2019-03-24T02:58:04.686Z,5.12
2019-03-24T03:00:35.733Z,5.85
2019-03-24T03:03:05.258Z,5.28
2019-03-24T03:05:34.691Z,4.97
2019-03-24T03:08:04.813Z,5.42
2019-03-24T03:10:34.415Z,5.67
2019-03-24T03:13:04.015Z,5.62
2019-03-24T03:15:33.561Z,5.12
2019-03-24T03:18:03.147Z,5.60
2019-03-24T03:20:32.719Z,4.95
2019-03-24T03:23:02.362Z,5.65
2019-03-24T03:25:32.207Z,5.70
2019-03-24T03:28:02.381Z,5.75
2019-03-24T03:30:32.061Z,5.25
2019-03-24T03:33:01.512Z,5.75
2019-03-24T03:35:30.971Z,6.05
2019-03-24T03:38:00.773Z,6.50
2019-03-24T03:40:30.680Z,5.30
2019-03-24T03:43:00.413Z,5.65
2019-03-24T03:45:30.191Z,5.78
2019-03-24T03:48:00.227Z,5.92
2019-03-24T03:50:29.945Z,6.10
2019-03-24T03:52:59.311Z,6.05
2019-03-24T03:55:28.751Z,6.97
2019-03-24T03:57:58.200Z,5.47
2019-03-24T04:00:37.753Z,6.37
2019-03-24T04:03:08.714Z,6.47
2019-03-24T04:05:39.443Z,6.80
2019-03-24T04:08:08.952Z,6.45
2019-03-24T04:10:38.960Z,7.15
2019-03-24T04:13:08.393Z,6.50
2019-03-24T04:15:38.107Z,6.62
2019-03-24T04:18:07.769Z,7.30
2019-03-24T04:20:37.209Z,7.22
2019-03-24T04:23:06.725Z,7.58
2019-03-24T04:25:36.257Z,7.37
2019-03-24T04:28:05.956Z,6.92
2019-03-24T04:30:35.383Z,6.20
2019-03-24T04:33:04.881Z,6.62
2019-03-24T04:35:34.724Z,6.62
2019-03-24T04:38:04.927Z,6.80
2019-03-24T04:40:34.797Z,6.47
2019-03-24T04:43:04.758Z,6.62
2019-03-24T04:45:34.361Z,6.55
2019-03-24T04:48:03.804Z,7.53
2019-03-24T04:50:33.157Z,6.33
2019-03-24T04:53:02.908Z,6.50
2019-03-24T04:55:32.445Z,7.62
2019-03-24T04:58:01.874Z,7.10
2019-03-24T05:00:37.856Z,6.95
2019-03-24T05:05:37.386Z,6.90
2019-03-24T05:08:07.160Z,6.42
2019-03-24T05:10:36.988Z,6.78
2019-03-24T05:13:06.639Z,5.78
2019-03-24T05:15:36.166Z,6.03
2019-03-24T05:18:05.918Z,6.10
2019-03-24T05:20:35.369Z,6.55
2019-03-24T05:23:05.813Z,6.37
2019-03-24T05:25:35.355Z,6.72
2019-03-24T05:28:05.151Z,6.35
2019-03-24T05:30:35.755Z,6.08
2019-03-24T05:33:05.513Z,7.08
2019-03-24T05:35:35.044Z,5.80
2019-03-24T05:38:04.824Z,6.10
2019-03-24T05:40:34.362Z,7.10
2019-03-24T05:43:03.984Z,7.40
2019-03-24T05:45:33.423Z,7.35
2019-03-24T05:48:03.157Z,6.85
2019-03-24T05:50:32.913Z,8.38
2019-03-24T05:53:02.350Z,8.30
2019-03-24T05:55:32.100Z,6.85
2019-03-24T05:58:01.803Z,6.05
2019-03-24T06:00:31.341Z,6.03
2019-03-24T06:03:01.096Z,6.15
2019-03-24T06:05:30.726Z,7.45
2019-03-24T06:08:00.696Z,7.95
2019-03-24T06:10:30.124Z,7.35
2019-03-24T06:13:00.293Z,7.25
2019-03-24T06:15:29.719Z,8.23
2019-03-24T06:17:59.238Z,8.83
2019-03-24T06:20:28.698Z,8.95
2019-03-24T06:22:59.835Z,9.63
2019-03-24T06:25:29.674Z,8.10
2019-03-24T06:27:59.507Z,8.70
2019-03-24T06:30:29.076Z,8.95
2019-03-24T06:32:59.199Z,7.42
2019-03-24T06:35:28.763Z,8.63
2019-03-24T06:37:58.205Z,9.00
2019-03-24T06:40:27.826Z,8.38
2019-03-24T06:42:57.597Z,7.85
2019-03-24T08:19:15.630Z,5.53
2019-03-24T08:21:45.474Z,5.67
2019-03-24T08:24:15.243Z,6.10
2019-03-24T08:26:44.862Z,5.47
2019-03-24T08:29:14.603Z,6.08
2019-03-24T08:31:44.061Z,5.58
2019-03-24T08:34:13.799Z,5.62
2019-03-24T08:36:44.043Z,5.83
2019-03-24T08:39:13.533Z,6.15
2019-03-24T08:41:43.235Z,5.58
2019-03-24T08:44:12.819Z,5.97
2019-03-24T08:46:45.125Z,4.65
2019-03-24T08:49:14.392Z,4.20
2019-03-24T08:51:44.033Z,5.00
2019-03-24T08:54:13.923Z,5.50
2019-03-24T08:56:43.491Z,5.50
2019-03-24T08:59:13.036Z,5.85
2019-03-24T09:01:42.704Z,5.55
2019-03-24T09:04:12.745Z,5.08
2019-03-24T09:06:42.560Z,5.70
2019-03-24T09:09:14.925Z,6.08
2019-03-24T09:11:44.451Z,5.47
2019-03-24T09:14:14.517Z,5.92
2019-03-24T09:16:44.201Z,6.50
2019-03-24T09:19:13.761Z,5.78
2019-03-24T09:21:43.397Z,5.42
2019-03-24T09:24:13.406Z,5.17
2019-03-24T09:26:42.940Z,5.62
2019-03-24T09:29:12.566Z,4.53
2019-03-24T09:31:42.219Z,4.53
2019-03-24T09:34:12.385Z,4.92
2019-03-24T09:36:43.092Z,4.50
2019-03-24T09:39:12.558Z,4.42
2019-03-24T09:41:42.101Z,4.42
2019-03-24T09:44:11.861Z,3.35
2019-03-24T09:46:41.572Z,8.75
2019-03-24T09:49:11.210Z,4.67
2019-03-24T09:51:40.769Z,5.28
2019-03-24T09:54:10.138Z,2.90
2019-03-24T09:56:39.952Z,3.33
2019-03-24T09:59:09.814Z,3.77
2019-03-24T10:01:39.765Z,5.42
2019-03-24T10:04:09.520Z,3.95
2019-03-24T10:06:39.995Z,3.17
2019-03-24T10:09:09.436Z,3.85
2019-03-24T10:11:39.194Z,3.40
2019-03-24T10:14:08.640Z,3.17
2019-03-24T10:16:38.288Z,2.95
2019-03-24T10:19:13.912Z,3.40
2019-03-24T10:21:39.068Z,3.10
2019-03-24T10:24:08.984Z,2.33
2019-03-24T10:26:38.732Z,2.62
2019-03-24T10:29:08.136Z,3.10
2019-03-24T10:31:37.580Z,3.15
2019-03-24T10:34:07.129Z,2.60
2019-03-24T10:36:36.665Z,2.83
2019-03-24T10:39:06.490Z,2.90
2019-03-24T10:41:37.049Z,3.20
2019-03-24T10:44:06.484Z,2.80
2019-03-24T10:46:35.938Z,2.67
2019-03-24T10:49:06.038Z,2.58
2019-03-24T10:51:35.627Z,3.12
2019-03-24T10:54:05.284Z,2.05
2019-03-24T10:56:34.993Z,2.10
2019-03-24T10:59:04.498Z,3.02
2019-03-24T11:01:35.471Z,3.35
2019-03-24T11:04:05.000Z,4.00
2019-03-24T11:06:34.442Z,3.30
2019-03-24T11:09:04.971Z,3.27
2019-03-24T11:11:34.475Z,3.17
2019-03-24T11:14:03.860Z,3.02
2019-03-24T11:16:33.577Z,3.27
2019-03-24T11:19:03.457Z,9.45
2019-03-24T11:21:33.340Z,7.37
2019-03-24T11:24:03.204Z,5.35
2019-03-24T11:26:32.672Z,6.17
2019-03-24T11:29:02.229Z,8.45
2019-03-24T11:31:31.709Z,10.80
2019-03-24T11:34:01.503Z,10.90
2019-03-24T11:36:31.016Z,16.40
2019-03-24T11:39:00.656Z,5.45
2019-03-24T11:41:30.587Z,4.75
2019-03-24T11:44:00.259Z,9.08
2019-03-24T11:46:29.724Z,10.40
2019-03-24T11:48:59.265Z,5.58
2019-03-24T11:51:28.777Z,5.65
2019-03-24T11:53:59.581Z,4.70
2019-03-24T11:56:29.356Z,11.70
2019-03-24T11:59:00.162Z,7.45
2019-03-24T12:01:37.993Z,3.33
2019-03-24T12:04:01.025Z,5.92
2019-03-24T12:06:30.680Z,5.15
2019-03-24T12:09:00.327Z,2.02
2019-03-24T12:11:30.118Z,2.40
2019-03-24T12:13:59.872Z,2.75
2019-03-24T12:16:30.178Z,3.60
2019-03-24T12:18:59.888Z,3.70
2019-03-24T12:21:29.817Z,5.22
2019-03-24T12:23:59.559Z,3.85
2019-03-24T12:26:29.077Z,4.17
2019-03-24T12:28:58.787Z,5.55
2019-03-24T12:31:28.556Z,5.80
2019-03-24T12:33:58.063Z,5.03
2019-03-24T12:36:27.589Z,5.05
2019-03-24T12:38:57.424Z,3.45
2019-03-24T12:41:26.962Z,4.58
2019-03-24T12:43:56.534Z,2.92
2019-03-24T12:46:25.979Z,4.35
2019-03-24T12:48:55.516Z,4.03
2019-03-24T12:51:25.180Z,4.87
2019-03-24T12:53:55.059Z,3.15
2019-03-24T12:56:24.788Z,4.22
2019-03-24T12:58:54.499Z,4.58
2019-03-24T13:01:23.861Z,5.87
2019-03-24T13:03:53.587Z,4.37
2019-03-24T13:06:24.228Z,3.77
2019-03-24T13:08:53.765Z,3.40
2019-03-24T13:11:23.502Z,3.50
2019-03-24T13:13:53.232Z,3.58
2019-03-24T13:16:23.044Z,3.42
2019-03-24T13:18:52.954Z,4.92
2019-03-24T13:21:22.329Z,2.92
2019-03-24T13:23:51.782Z,3.45
2019-03-24T13:26:21.241Z,3.52
2019-03-24T13:28:50.871Z,3.10
2019-03-24T13:31:21.180Z,4.17
2019-03-24T13:33:51.310Z,3.85
2019-03-24T13:36:21.086Z,3.87
2019-03-24T13:38:50.540Z,3.25
2019-03-24T13:41:20.633Z,3.20
2019-03-24T13:43:50.274Z,3.10
2019-03-24T13:46:19.701Z,2.37
2019-03-24T13:48:49.363Z,3.52
2019-03-24T13:51:19.060Z,3.60
2019-03-24T13:53:48.983Z,2.98
2019-03-24T13:56:21.659Z,3.17
2019-03-24T13:58:51.104Z,4.72
2019-03-24T14:01:20.898Z,4.80
2019-03-24T14:03:50.689Z,3.55
2019-03-24T14:06:20.339Z,3.08
2019-03-24T14:08:50.167Z,3.20
2019-03-24T14:11:19.958Z,3.75
2019-03-24T14:13:49.421Z,3.15
2019-03-24T14:16:19.219Z,3.30
2019-03-24T14:18:48.655Z,2.83
2019-03-24T14:21:18.412Z,2.70
2019-03-24T14:23:48.117Z,3.92
2019-03-24T14:26:17.806Z,4.62
2019-03-24T14:28:47.367Z,3.30
2019-03-24T14:31:17.032Z,2.95
2019-03-24T14:33:47.896Z,4.70
2019-03-24T14:36:17.435Z,2.60
2019-03-24T14:38:46.979Z,2.47
2019-03-24T14:41:17.512Z,2.37
2019-03-24T14:43:47.151Z,2.85
2019-03-24T14:46:16.922Z,3.65
2019-03-24T14:48:46.825Z,2.40
2019-03-24T14:51:16.661Z,2.25
2019-03-24T14:53:46.220Z,2.42
2019-03-24T14:56:15.818Z,2.27
2019-03-24T14:58:45.287Z,2.33
2019-03-24T15:01:14.934Z,2.52
2019-03-24T15:03:45.472Z,2.20
2019-03-24T15:06:15.219Z,2.60
2019-03-24T15:08:44.657Z,2.85
2019-03-24T15:11:14.039Z,2.52
2019-03-24T15:13:43.732Z,2.40
2019-03-24T15:16:13.177Z,2.27
2019-03-24T15:18:42.570Z,2.12
2019-03-24T15:21:12.223Z,2.30
2019-03-24T15:23:41.622Z,2.33
2019-03-24T15:26:11.260Z,2.50
2019-03-24T15:28:40.915Z,2.35
2019-03-24T15:31:10.856Z,3.12
2019-03-24T15:33:40.505Z,2.22
2019-03-24T15:36:09.962Z,2.60
2019-03-24T15:38:39.404Z,2.47
2019-03-24T15:41:10.054Z,2.98
2019-03-24T15:43:41.206Z,2.33
2019-03-24T15:46:11.136Z,2.37
2019-03-24T15:48:41.590Z,2.40
2019-03-24T15:51:16.879Z,2.70
2019-03-24T15:53:42.297Z,3.85
2019-03-24T15:56:12.232Z,3.12
2019-03-24T15:58:42.320Z,2.58
2019-03-24T16:01:11.865Z,2.67
2019-03-24T16:03:41.515Z,2.52
2019-03-24T16:06:11.459Z,2.60
2019-03-24T16:08:41.281Z,2.58
2019-03-24T16:11:11.128Z,2.52
2019-03-24T16:13:40.582Z,2.00
2019-03-24T16:16:10.131Z,1.90
2019-03-24T16:18:39.568Z,2.35
2019-03-24T16:21:09.043Z,2.62
2019-03-24T16:23:38.789Z,2.62
2019-03-24T16:26:08.779Z,2.47
2019-03-24T16:28:38.768Z,2.10
2019-03-24T16:31:08.590Z,2.50
2019-03-24T16:33:38.282Z,3.22
2019-03-24T16:36:07.719Z,3.27
2019-03-24T16:38:37.107Z,3.47
2019-03-24T16:41:06.981Z,6.58
2019-03-24T16:43:36.422Z,9.10
2019-03-24T16:46:06.251Z,9.38
2019-03-24T16:48:37.045Z,8.88
2019-03-24T16:51:06.904Z,4.35
2019-03-24T16:53:36.372Z,17.32
2019-03-24T16:56:05.918Z,7.92
2019-03-24T16:58:35.356Z,11.65
2019-03-24T17:01:05.198Z,5.45
2019-03-24T17:03:34.752Z,5.00
2019-03-24T17:06:04.791Z,6.12
2019-03-24T17:08:34.346Z,11.05
2019-03-24T17:11:03.960Z,4.90
2019-03-24T17:13:33.841Z,10.40
2019-03-24T17:16:03.561Z,8.03
2019-03-24T17:18:33.277Z,16.42
2019-03-24T17:21:03.081Z,9.98
2019-03-24T17:23:33.024Z,7.47
2019-03-24T17:26:02.998Z,5.22
2019-03-24T17:28:32.599Z,5.20
2019-03-24T17:31:02.079Z,5.65
2019-03-24T17:33:31.630Z,8.68
2019-03-24T17:36:01.406Z,4.05
2019-03-24T17:38:30.942Z,5.75
2019-03-24T17:41:00.846Z,3.50
2019-03-24T17:43:32.032Z,3.00
2019-03-24T17:46:01.659Z,2.90
2019-03-24T17:48:31.551Z,3.17
2019-03-24T17:51:01.069Z,3.02
2019-03-24T17:53:30.498Z,3.02
2019-03-24T17:56:00.479Z,3.17
2019-03-24T17:58:29.984Z,3.22
2019-03-24T18:01:00.702Z,2.95
2019-03-24T18:03:30.441Z,2.60
2019-03-24T18:05:59.809Z,4.12
2019-03-24T18:08:29.182Z,2.77
2019-03-24T18:10:58.940Z,2.22
2019-03-24T18:13:28.299Z,2.80
2019-03-24T18:15:57.950Z,2.20
2019-03-24T18:18:27.599Z,2.15
2019-03-24T18:20:57.353Z,2.75
2019-03-24T18:23:27.237Z,2.50
2019-03-24T18:25:56.686Z,2.30
2019-03-24T18:28:26.131Z,2.60
2019-03-24T18:30:55.564Z,2.47
2019-03-24T18:33:25.030Z,2.30
2019-03-24T18:35:54.763Z,1.90
2019-03-24T18:38:24.379Z,3.17
2019-03-24T18:40:55.375Z,2.33
2019-03-24T18:43:24.920Z,3.33
2019-03-24T18:45:54.619Z,3.25
2019-03-24T18:48:24.562Z,3.47
2019-03-24T18:50:54.185Z,3.52
2019-03-24T18:53:24.119Z,3.27
2019-03-24T18:56:13.455Z,3.60
2019-03-24T18:58:42.992Z,2.60
2019-03-24T19:01:12.549Z,3.20
2019-03-24T19:03:42.346Z,3.30
2019-03-24T19:06:12.407Z,3.08
2019-03-24T19:08:42.050Z,2.85
2019-03-24T19:11:11.786Z,3.20
2019-03-24T19:13:41.245Z,3.27
2019-03-24T19:16:10.683Z,2.87
2019-03-24T19:18:40.515Z,3.20
2019-03-24T19:21:10.011Z,3.62
2019-03-24T19:23:39.495Z,3.35
2019-03-24T19:26:09.244Z,3.37
2019-03-24T19:28:39.327Z,3.27
2019-03-24T19:31:09.634Z,3.35
2019-03-24T19:33:39.162Z,4.37
2019-03-24T19:36:08.821Z,4.03
2019-03-24T19:38:39.221Z,4.17
2019-03-24T19:41:08.686Z,4.10
2019-03-24T19:43:39.850Z,3.70
2019-03-24T19:46:09.706Z,4.35
2019-03-24T19:48:39.269Z,4.90
2019-03-24T19:51:08.902Z,4.33
2019-03-24T19:53:38.342Z,4.85
2019-03-24T19:56:08.506Z,4.72
2019-03-24T19:58:38.534Z,4.55
2019-03-24T20:01:08.186Z,4.83
2019-03-24T20:03:37.713Z,5.85
2019-03-24T20:06:07.394Z,5.70
2019-03-24T20:08:36.787Z,6.15
2019-03-24T20:11:06.218Z,6.75
2019-03-24T20:13:36.916Z,6.17
2019-03-24T20:16:06.475Z,6.03
2019-03-24T20:18:36.343Z,5.67
2019-03-24T20:21:07.115Z,6.08
2019-03-24T20:23:36.786Z,6.25
2019-03-24T20:26:06.315Z,6.47
2019-03-24T20:28:35.699Z,7.72
2019-03-24T20:31:05.196Z,8.20
2019-03-24T20:33:34.558Z,7.83
2019-03-24T20:36:04.390Z,8.18
2019-03-24T20:38:33.812Z,8.35
2019-03-24T20:41:03.403Z,8.40
2019-03-24T20:43:33.026Z,8.48
2019-03-24T20:46:02.463Z,8.23
2019-03-24T20:48:32.279Z,8.58
2019-03-24T20:51:01.933Z,8.75
2019-03-24T20:53:31.655Z,9.68
2019-03-24T20:56:01.543Z,10.78
2019-03-24T20:58:30.980Z,10.72
2019-03-24T21:01:00.364Z,11.25
2019-03-24T21:03:30.259Z,10.38
2019-03-24T21:05:59.717Z,9.40
2019-03-24T21:08:29.469Z,8.78
2019-03-24T21:10:59.208Z,8.33
2019-03-24T21:13:28.590Z,7.53
2019-03-24T21:15:58.224Z,8.13
2019-03-24T21:18:28.084Z,7.60
2019-03-24T21:20:57.812Z,8.03
2019-03-24T21:23:29.861Z,8.98
2019-03-24T21:25:59.089Z,9.18
2019-03-24T21:28:28.582Z,8.88
2019-03-24T21:30:58.159Z,8.13
2019-03-24T21:33:27.806Z,8.65
2019-03-24T21:35:57.508Z,7.55
2019-03-24T21:38:27.250Z,7.47
2019-03-24T21:40:56.904Z,7.58
2019-03-24T21:43:26.331Z,6.70
2019-03-24T21:45:55.709Z,6.40
2019-03-24T21:48:25.246Z,6.62
2019-03-24T21:50:54.987Z,5.65
2019-03-24T21:53:24.410Z,6.15
2019-03-24T21:55:54.143Z,5.67
2019-03-24T21:58:25.257Z,5.60
2019-03-24T22:00:55.037Z,6.35
2019-03-24T22:03:25.031Z,5.78
2019-03-24T22:05:54.488Z,6.28
2019-03-24T22:08:23.859Z,5.62
2019-03-24T22:10:53.553Z,5.60
2019-03-24T22:13:22.921Z,5.80
2019-03-24T22:15:52.747Z,5.45
2019-03-24T22:18:22.707Z,5.28
2019-03-24T22:20:52.136Z,5.25
2019-03-24T22:23:21.817Z,6.05
2019-03-24T22:25:53.139Z,5.92
2019-03-24T22:28:22.578Z,5.37
2019-03-24T22:30:52.074Z,5.65
2019-03-24T22:33:21.910Z,5.40
2019-03-24T22:35:52.142Z,5.15
2019-03-24T22:38:21.724Z,5.90
2019-03-24T22:40:51.216Z,5.75
2019-03-24T22:43:20.706Z,5.80
2019-03-24T22:45:50.159Z,5.65
2019-03-24T22:48:19.682Z,5.40
2019-03-24T22:50:49.234Z,5.37
2019-03-24T22:53:18.947Z,5.70
2019-03-24T22:55:51.012Z,5.40
2019-03-24T22:58:20.568Z,6.35
2019-03-24T23:00:52.794Z,6.28
2019-03-24T23:03:24.931Z,6.17
2019-03-24T23:05:53.836Z,5.95
2019-03-24T23:08:23.478Z,6.03
2019-03-24T23:10:52.947Z,6.62
2019-03-24T23:13:22.488Z,5.97
2019-03-24T23:15:52.211Z,5.78
2019-03-24T23:18:21.755Z,5.67
2019-03-24T23:20:51.378Z,5.40
2019-03-24T23:23:20.948Z,4.83
2019-03-24T23:25:50.458Z,5.40
2019-03-24T23:28:19.959Z,4.97
2019-03-24T23:30:49.576Z,4.87
2019-03-24T23:33:19.615Z,5.05
2019-03-24T23:35:49.107Z,5.53
2019-03-24T23:38:20.214Z,4.85
2019-03-24T23:40:49.923Z,5.42
2019-03-24T23:43:19.425Z,5.33
2019-03-24T23:45:49.161Z,4.90
2019-03-24T23:48:18.595Z,5.08
2019-03-24T23:50:49.708Z,5.17
2019-03-24T23:53:19.235Z,5.50
2019-03-24T23:55:48.779Z,5.30
2019-03-24T23:58:18.142Z,5.42
